Airfield :
LOGIN :

Register | Disclaimer

   EN    FR    IT 

 










Legend :    VFR   Marginal VFR   IFR   Intensive IFR   Very Intensive IFR
Visi :
Ceiling :
>= 8 km
>= 3000ft
5 to 8 km
1000 to 3000 ft
1500m to 5 km
500 to 1000 ft
800 to 1500m
200 to 500 ft
< 800m
< 200 ft
Symbols :   Thunderstorms  Fog  Heavy snow  Heavy precipitations  Wind > 20 kt
SIGMETs :     Misc.  Thunderstorms  Icing  Turbulence  Mountain Waves  Volcanic Ashes







- Airport Elevation : 1043 ft
- IATA code : SLD


LZSL - Sliac

CURRENT METAR :
  • 161900Z 33003KT 9999 OVC057 23/14 Q1017

EXPIRED METARs :
  • 161830Z VRB01KT 9999 FEW056 BKN060 25/13 Q1017
  • 161800Z VRB02KT 9999 FEW055 BKN058 25/12 Q1017
  • 161730Z 17003KT 130V220 CAVOK 26/12 Q1016
  • 161700Z 14003KT 020V180 CAVOK 27/11 Q1016
  • 161630Z 15003KT 120V200 9999 SCT063 27/12 Q1016

TAF TAF LZSL
Valid from the 16 at 18:00 until the 17 at 03:00 UTC


161700Z 1618/1703 VRB02KT CAVOK
No reported NOTAMs for that airfield.



MET'MAP, your aeronautical weather chart ! - Copyright ORBIFLY December 2007 - Disclaimer

ORBIFLY MET'MAP TEAM :

Programming & Development : Alexandra Zaïnal
Concept & Development : Baudouin d'Aumeries
Co-Development & Prog : Marc-Olivier Méhu
Technical & hardware support : Manuel Goepfert

Contact : metmap@orbifly.com




SOURCES & CREDITS :

   NOAA